Batajnica Air Base

LYBT · Vojvodina, Serbia

História da METAR LYBT · Batajnica Air Base

Abaixo você vê METARs dos últimos dias. Selecione um ano para navegar pelos METARs mais antigos, a partir do ano 2007.

29 de maio de 2024

Hora Código Clima Temp. Visibilidade Tecto Vento METAR/SPECI
16:00
V
26 °C 10 km+ - 280° 280° 13 kt METAR LYBT 291400Z 28013KT CAVOK 26/14 Q1010 NOSIG
15:30
V
26 °C 10 km+ - 290° 290° 11 kt METAR LYBT 291330Z 29011KT 250V340 CAVOK 26/14 Q1010 NOSIG
15:00
V
26 °C 10 km+ - 300° 300° 12 kt METAR LYBT 291300Z 30012KT 260V330 9999 SCT045 26/15 Q1011 NOSIG
14:30
V
25 °C 10 km+ - 310° 310° 10 kt METAR LYBT 291230Z 31010KT 260V340 9999 SCT040 25/15 Q1011 NOSIG
14:00
V
24 °C 10 km+ - 280° 280° 9 kt METAR LYBT 291200Z 28009KT 250V320 9999 SCT040 24/15 Q1012 NOSIG
13:30
V
24 °C 10 km+ - 290° 290° 11 kt METAR LYBT 291130Z 29011KT 250V330 9999 SCT040 24/15 Q1012 NOSIG
13:00
V
24 °C 10 km+ - 290° 290° 11 kt METAR LYBT 291100Z 29011KT 250V330 9999 FEW033 24/16 Q1013 NOSIG
12:30
V
23 °C 10 km+ - 280° 280° 11 kt METAR LYBT 291030Z 28011KT 240V310 9999 FEW030 23/16 Q1013 NOSIG
12:00
V
22 °C 10 km+ - 270° 270° 12 kt METAR LYBT 291000Z 27012KT 240V300 CAVOK 22/16 Q1014 NOSIG
11:00
V
21 °C 10 km+ - 260° 260° 12 kt METAR LYBT 290900Z 26012KT 220V300 9999 FEW027 21/16 Q1014 NOSIG
10:30
V
21 °C 10 km+ - 270° 270° 10 kt METAR LYBT 290830Z 27010KT 230V320 9999 FEW024 21/15 Q1014 NOSIG
10:00
V
20 °C 10 km+ - 270° 270° 11 kt METAR LYBT 290800Z 27011KT 230V310 9999 SCT023 20/15 Q1014 NOSIG
09:30
V
19 °C 10 km+ - 270° 270° 10 kt METAR LYBT 290730Z 27010KT 240V300 9999 SCT018 19/15 Q1014 NOSIG
09:00
V
18 °C 10 km+ - 260° 260° 11 kt METAR LYBT 290700Z 26011KT 230V290 9999 FEW018 18/15 Q1015 NOSIG
08:30
V
18 °C 10 km+ - 260° 260° 11 kt METAR LYBT 290630Z 26011KT 9999 FEW017 18/15 Q1015 NOSIG
08:00
V
17 °C 10 km+ - 270° 270° 11 kt METAR LYBT 290600Z 27011KT 9999 FEW017 17/15 Q1014 NOSIG
07:30
V
17 °C 10 km+ - 270° 270° 11 kt METAR LYBT 290530Z 27011KT 9999 FEW017 17/15 Q1014 NOSIG
07:00
V
16 °C 10 km+ - 270° 270° 8 kt METAR LYBT 290500Z 27008KT 240V300 9999 FEW020 16/15 Q1014 NOSIG
06:30
V
15 °C 10 km+ - 270° 270° 9 kt METAR LYBT 290430Z 27009KT CAVOK 15/14 Q1014 NOSIG
06:00
V
15 °C 10 km+ - 260° 260° 8 kt METAR LYBT 290400Z 26008KT CAVOK 15/14 Q1014 NOSIG
05:30
V
15 °C 10 km+ - 260° 260° 8 kt METAR LYBT 290330Z 26008KT CAVOK 15/14 Q1014 NOSIG
05:00
V
15 °C 10 km+ - 260° 260° 8 kt METAR LYBT 290300Z 26008KT CAVOK 15/14 Q1013 NOSIG
04:30
V
15 °C 10 km+ - 260° 260° 8 kt METAR LYBT 290230Z 26008KT CAVOK 15/14 Q1013 NOSIG
04:00
V
15 °C 10 km+ - 240° 240° 7 kt METAR LYBT 290200Z 24007KT CAVOK 15/14 Q1013 NOSIG
03:30
V
15 °C 10 km+ - 230° 230° 8 kt METAR LYBT 290130Z 23008KT CAVOK 15/15 Q1013 NOSIG
03:00
V
16 °C 10 km+ - 240° 240° 10 kt METAR LYBT 290100Z 24010KT CAVOK 16/15 Q1014 NOSIG
02:30
V
16 °C 10 km+ - 240° 240° 9 kt METAR LYBT 290030Z 24009KT CAVOK 16/15 Q1013 NOSIG
02:00
V
16 °C 10 km+ - 230° 230° 9 kt METAR LYBT 290000Z 23009KT 9999 FEW047TCU 16/16 Q1014 RESHRA NOSIG
01:00
V
17 °C 10 km+ - 240° 240° 6 kt METAR LYBT 282300Z 24006KT 200V270 CAVOK 17/13 Q1013 TEMPO 02012KT 4000 SHRA SCT040TCU
00:30
V
16 °C 10 km+ - 270° 270° 9 kt METAR LYBT 282230Z 27009KT 9999 FEW047TCU 16/14 Q1013 RESHRA NOSIG
00:00
V
18 °C 10 km+ - Var Var 2 kt METAR LYBT 282200Z VRB02KT CAVOK 18/12 Q1013 NOSIG

28 de maio de 2024

Hora Código Clima Temp. Visibilidade Tecto Vento METAR/SPECI
23:30
V
17 °C 10 km+ - 250° 250° 3 kt METAR LYBT 282130Z 25003KT CAVOK 17/12 Q1013 NOSIG
23:00
V
17 °C 10 km+ - 020° 020° 2 kt METAR LYBT 282100Z 02002KT CAVOK 17/12 Q1013 NOSIG
20:00
V
22 °C 10 km+ - 030° 030° 3 kt METAR LYBT 281800Z 03003KT CAVOK 22/09 Q1013 NOSIG
19:30
V
23 °C 10 km+ - 030° 030° 4 kt METAR LYBT 281730Z 03004KT CAVOK 23/09 Q1013 NOSIG
19:00
V
24 °C 10 km+ - 040° 040° 6 kt METAR LYBT 281700Z 04006KT 020V080 CAVOK 24/09 Q1012 NOSIG
18:30
V
25 °C 10 km+ - 040° 040° 6 kt METAR LYBT 281630Z 04006KT CAVOK 25/09 Q1012 NOSIG
18:00
V
25 °C 10 km+ - 050° 050° 7 kt METAR LYBT 281600Z 05007KT 010V070 CAVOK 25/10 Q1012 NOSIG
17:30
V
25 °C 10 km+ - 060° 060° 8 kt METAR LYBT 281530Z 06008KT 030V110 CAVOK 25/08 Q1012 NOSIG
17:00
V
25 °C 10 km+ - 040° 040° 8 kt METAR LYBT 281500Z 04008KT 340V080 CAVOK 25/08 Q1012 NOSIG
16:30
V
25 °C 10 km+ - 030° 030° 6 kt METAR LYBT 281430Z 03006KT 340V100 CAVOK 25/09 Q1012 NOSIG
16:00
V
26 °C 10 km+ - 050° 050° 6 kt METAR LYBT 281400Z 05006KT 360V100 CAVOK 26/09 Q1012 NOSIG
15:30
V
26 °C 10 km+ - 040° 040° 5 kt METAR LYBT 281330Z 04005KT 330V100 CAVOK 26/09 Q1013 NOSIG
15:00
V
26 °C 10 km+ - 040° 040° 7 kt METAR LYBT 281300Z 04007KT 330V080 CAVOK 26/10 Q1013 NOSIG
14:30
V
26 °C 10 km+ - 010° 010° 8 kt METAR LYBT 281230Z 01008KT 340V070 CAVOK 26/09 Q1013 NOSIG
14:00
V
25 °C 10 km+ - 020° 020° 7 kt METAR LYBT 281200Z 02007KT 330V070 CAVOK 25/11 Q1013 NOSIG
13:30
V
26 °C 10 km+ - 010° 010° 8 kt METAR LYBT 281130Z 01008KT 340V060 CAVOK 26/11 Q1014 NOSIG
13:00
V
25 °C 10 km+ - Var Var 6 kt METAR LYBT 281100Z VRB06KT CAVOK 25/12 Q1014 NOSIG
12:30
V
24 °C 10 km+ - 060° 060° 5 kt METAR LYBT 281030Z 06005KT 360V140 CAVOK 24/12 Q1014 NOSIG
12:00
V
24 °C 10 km+ - Var Var 4 kt METAR LYBT 281000Z VRB04KT CAVOK 24/12 Q1014 NOSIG
11:30
V
23 °C 10 km+ - 050° 050° 6 kt METAR LYBT 280930Z 05006KT 340V090 CAVOK 23/12 Q1015 NOSIG
11:00
V
23 °C 10 km+ - 060° 060° 6 kt METAR LYBT 280900Z 06006KT 020V170 CAVOK 23/13 Q1015 NOSIG
10:30
V
22 °C 10 km+ - 070° 070° 5 kt METAR LYBT 280830Z 07005KT 360V150 CAVOK 22/14 Q1015 NOSIG
10:00
V
21 °C 10 km+ - 040° 040° 4 kt METAR LYBT 280800Z 04004KT 350V110 CAVOK 21/14 Q1015 NOSIG
09:30
V
20 °C 10 km+ - 070° 070° 4 kt METAR LYBT 280730Z 07004KT 360V130 CAVOK 20/13 Q1015 NOSIG
09:00
V
19 °C 10 km+ - 070° 070° 3 kt METAR LYBT 280700Z 07003KT 360V160 CAVOK 19/13 Q1015 NOSIG
08:30
V
18 °C 10 km+ - 040° 040° 3 kt METAR LYBT 280630Z 04003KT 310V100 CAVOK 18/13 Q1015 NOSIG
08:00
V
18 °C 10 km+ - 060° 060° 3 kt METAR LYBT 280600Z 06003KT 350V100 CAVOK 18/14 Q1015 NOSIG
07:30
V
16 °C 10 km+ - 360° 360° 0 kt METAR LYBT 280530Z 00000KT CAVOK 16/14 Q1015 NOSIG
07:00
V
16 °C 10 km+ - Var Var 1 kt METAR LYBT 280500Z VRB01KT CAVOK 16/13 Q1015 NOSIG
06:30
V
14 °C 10 km+ - Var Var 2 kt METAR LYBT 280430Z VRB02KT CAVOK 14/13 Q1015 NOSIG
06:00
V
13 °C 10 km+ - Var Var 2 kt METAR LYBT 280400Z VRB02KT CAVOK 13/12 Q1015 NOSIG
05:30
V
12 °C 10 km+ - 040° 040° 3 kt METAR LYBT 280330Z 04003KT CAVOK 12/12 Q1015 NOSIG
05:00
V
11 °C 10 km+ - Var Var 1 kt METAR LYBT 280300Z VRB01KT CAVOK 11/11 Q1014 NOSIG
04:30
V
11 °C 10 km+ - 130° 130° 1 kt METAR LYBT 280230Z 13001KT CAVOK 11/11 Q1015 NOSIG
04:00
V
13 °C 10 km+ - 080° 080° 3 kt METAR LYBT 280200Z 08003KT 060V150 CAVOK 13/12 Q1015 NOSIG
03:30
V
13 °C 10 km+ - 080° 080° 1 kt METAR LYBT 280130Z 08001KT CAVOK 13/12 Q1015 NOSIG
03:00
V
14 °C 10 km+ - 090° 090° 3 kt METAR LYBT 280100Z 09003KT 060V130 CAVOK 14/13 Q1015 NOSIG
02:30
V
14 °C 10 km+ - 110° 110° 4 kt METAR LYBT 280030Z 11004KT CAVOK 14/13 Q1015 NOSIG
02:00
V
15 °C 10 km+ - 100° 100° 6 kt METAR LYBT 280000Z 10006KT 060V120 CAVOK 15/13 Q1016 NOSIG
01:30
V
14 °C 10 km+ - Var Var 2 kt METAR LYBT 272330Z VRB02KT CAVOK 14/12 Q1016 NOSIG
01:00
V
14 °C 10 km+ - Var Var 2 kt METAR LYBT 272300Z VRB02KT CAVOK 14/12 Q1016 NOSIG
00:30
V
15 °C 10 km+ - 050° 050° 6 kt METAR LYBT 272230Z 05006KT 020V090 CAVOK 15/13 Q1016 NOSIG
00:00
V
14 °C 10 km+ - 350° 350° 3 kt METAR LYBT 272200Z 35003KT 310V020 CAVOK 14/12 Q1016 NOSIG

27 de maio de 2024

Hora Código Clima Temp. Visibilidade Tecto Vento METAR/SPECI
23:30
V
15 °C 10 km+ - Var Var 1 kt METAR LYBT 272130Z VRB01KT CAVOK 15/12 Q1016 NOSIG
23:00
V
15 °C 10 km+ - 260° 260° 1 kt METAR LYBT 272100Z 26001KT CAVOK 15/12 Q1016 NOSIG
22:30
V
16 °C 10 km+ - 230° 230° 3 kt METAR LYBT 272030Z 23003KT CAVOK 16/12 Q1016 NOSIG
22:00
V
18 °C 10 km+ - Var Var 2 kt METAR LYBT 272000Z VRB02KT CAVOK 18/12 Q1017 NOSIG
21:30
V
19 °C 10 km+ - 080° 080° 5 kt METAR LYBT 271930Z 08005KT 050V110 CAVOK 19/12 Q1017 NOSIG
21:00
V
19 °C 10 km+ - 080° 080° 6 kt METAR LYBT 271900Z 08006KT CAVOK 19/13 Q1016 NOSIG
20:30
V
19 °C 10 km+ - 080° 080° 2 kt METAR LYBT 271830Z 08002KT CAVOK 19/12 Q1016 NOSIG
20:00
V
20 °C 10 km+ - 160° 160° 4 kt METAR LYBT 271800Z 16004KT CAVOK 20/13 Q1016 NOSIG
19:30
V
22 °C 10 km+ - 120° 120° 5 kt METAR LYBT 271730Z 12005KT 070V140 CAVOK 22/12 Q1016 NOSIG
19:00
V
23 °C 10 km+ - 050° 050° 5 kt METAR LYBT 271700Z 05005KT CAVOK 23/11 Q1017 NOSIG
18:30
V
23 °C 10 km+ - 050° 050° 10 kt METAR LYBT 271630Z 05010KT 020V080 CAVOK 23/11 Q1017 NOSIG
18:00
V
24 °C 10 km+ - 040° 040° 17 kt METAR LYBT 271600Z 04017KT CAVOK 24/11 Q1017 BECMG 04006KT
17:00
V
27 °C 10 km+ - 310° 310° 5 kt METAR LYBT 271500Z 31005KT 270V360 CAVOK 27/12 Q1016 NOSIG
16:30
V
27 °C 10 km+ - 320° 320° 3 kt METAR LYBT 271430Z 32003KT 200V350 CAVOK 27/10 Q1017 NOSIG
16:00
V
27 °C 10 km+ - Var Var 3 kt METAR LYBT 271400Z VRB03KT CAVOK 27/11 Q1017 NOSIG
15:30
V
27 °C 10 km+ - 220° 220° 3 kt METAR LYBT 271330Z 22003KT 150V300 CAVOK 27/10 Q1017 NOSIG
15:00
V
27 °C 10 km+ - 200° 200° 3 kt METAR LYBT 271300Z 20003KT 110V250 CAVOK 27/09 Q1017 NOSIG
14:30
V
27 °C 10 km+ - Var Var 2 kt METAR LYBT 271230Z VRB02KT CAVOK 27/09 Q1018 NOSIG
14:00
V
26 °C 10 km+ - 230° 230° 3 kt METAR LYBT 271200Z 23003KT 150V320 CAVOK 26/11 Q1018 NOSIG
13:30
V
25 °C 10 km+ - Var Var 3 kt METAR LYBT 271130Z VRB03KT CAVOK 25/11 Q1019 NOSIG
13:00
V
24 °C 10 km+ - Var Var 2 kt METAR LYBT 271100Z VRB02KT CAVOK 24/12 Q1019 NOSIG
12:30
V
24 °C 10 km+ - Var Var 2 kt METAR LYBT 271030Z VRB02KT CAVOK 24/13 Q1019 NOSIG
12:00
V
23 °C 10 km+ - 250° 250° 3 kt METAR LYBT 271000Z 25003KT 200V360 CAVOK 23/12 Q1019 NOSIG
11:30
V
22 °C 10 km+ - Var Var 2 kt METAR LYBT 270930Z VRB02KT CAVOK 22/14 Q1020 NOSIG
11:00
V
21 °C 10 km+ - Var Var 3 kt METAR LYBT 270900Z VRB03KT CAVOK 21/16 Q1020 NOSIG
10:30
V
19 °C 10 km+ - 240° 240° 3 kt METAR LYBT 270830Z 24003KT 170V300 CAVOK 19/17 Q1020 NOSIG
10:00
V
18 °C 10 km+ - 220° 220° 3 kt METAR LYBT 270800Z 22003KT 150V310 9999 SCT010 18/18 Q1020 NOSIG
09:30
L
16 °C 7 km 400 ft 220° 220° 3 kt METAR LYBT 270730Z 22003KT 150V290 7000 BKN004 16/16 Q1020 BECMG SCT006
09:00
L
15 °C 3 km 300 ft 240° 240° 4 kt METAR LYBT 270700Z 24004KT 200V290 3000 BR BKN003 15/15 Q1020 BECMG 6000 NSW SCT006
08:30
L
14 °C 600 m 200 ft Var Var 2 kt METAR LYBT 270630Z VRB02KT 0600 R12/1400U R30/0650N FG VV002 14/14 Q1020 BECMG 1500 BR
08:00
L
14 °C 350 m 100 ft Var Var 2 kt METAR LYBT 270600Z VRB02KT 0350 R12/0500N R30/0375U FG VV001 14/14 Q1020 NOSIG
Relatar uma mudança